Time;durP1;ratioP1;P1;durP2;ratioP2;P2;SDS_P1;SDS_P2;PMS_P1;PMS_P2;Temp;Humidity;BMP_temperature;BMP_pressure;BME280_temperature;BME280_humidity;BME280_pressure;Samples;Min_cycle;Max_cycle;Signal;HPM_P1;HPM_P2
2022/05/21 00:00:52;;;;;;;1.52;0.68;;;;;;;16.76;100.00;98945.62;1755909;79;21187;-49
2022/05/21 00:05:24;;;;;;;2.57;0.57;;;;;;;16.77;100.00;98945.45;1787879;78;23628;-50
2022/05/21 00:07:57;;;;;;;3.92;0.60;;;;;;;16.71;100.00;98941.92;1766156;79;22072;-51
2022/05/21 00:10:23;;;;;;;3.02;0.68;;;;;;;16.70;100.00;98944.77;1768736;79;21122;-51
2022/05/21 00:12:49;;;;;;;3.92;0.70;;;;;;;16.68;100.00;98954.40;1766500;79;21098;-50
2022/05/21 00:15:18;;;;;;;3.83;0.70;;;;;;;16.66;100.00;98956.41;1767319;79;20989;-49
2022/05/21 00:17:44;;;;;;;2.55;0.60;;;;;;;16.63;100.00;98948.02;1763632;79;20957;-51
2022/05/21 00:22:58;;;;;;;2.30;0.68;;;;;;;16.58;100.00;98937.16;1763499;79;22582;-51
2022/05/21 00:25:25;;;;;;;1.57;0.68;;;;;;;16.55;100.00;98929.25;1762901;79;21448;-51
2022/05/21 00:27:52;;;;;;;3.05;0.68;;;;;;;16.52;100.00;98933.09;1768483;79;21697;-52
2022/05/21 00:30:18;;;;;;;5.22;0.60;;;;;;;16.49;100.00;98935.22;1762252;80;21143;-50
2022/05/21 00:32:45;;;;;;;2.22;0.98;;;;;;;16.46;100.00;98932.27;1765963;79;22206;-50
2022/05/21 00:35:11;;;;;;;1.47;0.60;;;;;;;16.44;100.00;98927.45;1765594;79;21211;-51
2022/05/21 00:37:38;;;;;;;3.95;0.53;;;;;;;16.42;100.00;98928.56;1766399;79;21143;-50
2022/05/21 00:40:06;;;;;;;6.42;0.68;;;;;;;16.40;100.00;98934.15;1768082;79;22553;-51
2022/05/21 00:42:33;;;;;;;4.10;0.62;;;;;;;16.39;100.00;98926.13;1770112;79;21524;-49
2022/05/21 00:44:59;;;;;;;4.10;0.80;;;;;;;16.39;100.00;98931.06;1764193;80;21678;-50
2022/05/21 00:47:26;;;;;;;4.45;0.65;;;;;;;16.38;100.00;98927.98;1767511;79;21133;-49
2022/05/21 00:49:52;;;;;;;1.02;0.62;;;;;;;16.38;100.00;98931.19;1765516;79;21124;-50
2022/05/21 00:52:24;;;;;;;3.22;0.70;;;;;;;16.38;100.00;98936.63;1708768;81;21042;-52
2022/05/21 00:54:54;;;;;;;0.72;0.50;;;;;;;16.37;100.00;98937.61;1717843;82;21113;-51
2022/05/21 00:57:29;;;;;;;3.42;0.60;;;;;;;16.36;100.00;98940.81;1713157;81;21097;-49
2022/05/21 01:00:02;;;;;;;2.90;0.70;;;;;;;16.37;100.00;98943.04;1704620;82;22429;-50
2022/05/21 01:02:34;;;;;;;1.22;0.50;;;;;;;16.36;100.00;98935.39;1684581;82;20989;-47
2022/05/21 01:05:02;;;;;;;6.70;0.62;;;;;;;16.37;100.00;98937.61;1684666;82;21129;-51
2022/05/21 01:07:29;;;;;;;1.72;0.60;;;;;;;16.38;100.00;98942.92;1673774;83;21049;-50
2022/05/21 01:09:57;;;;;;;4.15;0.60;;;;;;;16.39;100.00;98935.63;1670536;83;21064;-50
2022/05/21 01:12:27;;;;;;;1.62;0.70;;;;;;;16.39;100.00;98934.27;1647278;83;21159;-50
2022/05/21 01:14:57;;;;;;;3.37;0.60;;;;;;;16.38;100.00;98944.27;1674006;83;21083;-49
2022/05/21 01:17:25;;;;;;;1.95;0.60;;;;;;;16.37;100.00;98932.17;1671785;83;21078;-51
2022/05/21 01:20:02;;;;;;;2.02;0.60;;;;;;;16.37;100.00;98939.83;1680079;83;21020;-50
2022/05/21 01:22:31;;;;;;;2.25;0.57;;;;;;;16.37;100.00;98941.69;1676039;83;21053;-51
2022/05/21 01:24:57;;;;;;;1.85;0.70;;;;;;;16.37;100.00;98942.55;1679250;83;21163;-52
2022/05/21 01:27:24;;;;;;;0.72;0.60;;;;;;;16.36;100.00;98940.81;1681811;83;21072;-51
2022/05/21 01:29:51;;;;;;;4.12;0.60;;;;;;;16.36;100.00;98940.81;1630408;83;21012;-52
2022/05/21 01:32:18;;;;;;;3.27;0.65;;;;;;;16.36;100.00;98944.03;1717779;81;21370;-51
2022/05/21 01:34:45;;;;;;;3.77;0.70;;;;;;;16.37;100.00;98941.69;1718354;81;20927;-51
2022/05/21 01:37:11;;;;;;;5.28;0.60;;;;;;;16.35;100.00;98930.08;1680956;83;21126;-50
2022/05/21 01:39:37;;;;;;;0.70;0.50;;;;;;;16.35;100.00;98928.23;1681465;83;21340;-51
2022/05/21 01:42:05;;;;;;;2.37;0.60;;;;;;;16.36;100.00;98932.67;1716218;81;21048;-52
2022/05/21 01:44:37;;;;;;;2.17;0.75;;;;;;;16.36;100.00;98934.03;1714645;81;20945;-50
2022/05/21 01:47:10;;;;;;;4.10;0.60;;;;;;;16.38;100.00;98930.70;1683264;83;21897;-51
2022/05/21 01:49:37;;;;;;;3.80;0.70;;;;;;;16.38;100.00;98927.11;1719352;81;21037;-51
2022/05/21 01:52:05;;;;;;;1.85;0.70;;;;;;;16.38;100.00;98917.12;1720881;81;20910;-51
2022/05/21 01:54:32;;;;;;;2.50;1.00;;;;;;;16.39;100.00;98928.34;1716754;81;21286;-50
2022/05/21 01:56:59;;;;;;;5.40;0.70;;;;;;;16.40;100.00;98923.28;1717141;81;20966;-52
2022/05/21 01:59:25;;;;;;;2.22;0.68;;;;;;;16.39;100.00;98931.06;1717766;81;20975;-51
2022/05/21 02:01:51;;;;;;;2.27;0.60;;;;;;;16.40;100.00;98920.57;1680502;83;21088;-50
2022/05/21 02:04:18;;;;;;;1.12;0.70;;;;;;;16.40;100.00;98919.70;1690001;83;21354;-50
2022/05/21 02:06:45;;;;;;;4.50;0.80;;;;;;;16.40;100.00;98916.99;1698316;82;20872;-51
2022/05/21 02:09:11;;;;;;;2.27;0.90;;;;;;;16.39;100.00;98917.98;1681773;83;20923;-50
2022/05/21 02:11:40;;;;;;;3.22;0.68;;;;;;;16.37;100.00;98921.31;1676099;83;20993;-50
2022/05/21 02:14:07;;;;;;;2.27;0.70;;;;;;;16.35;100.00;98913.29;1697102;83;21489;-50
2022/05/21 02:16:34;;;;;;;4.92;0.68;;;;;;;16.34;100.00;98921.06;1707926;82;21081;-51
2022/05/21 02:19:01;;;;;;;3.87;0.70;;;;;;;16.32;100.00;98920.36;1685199;83;20911;-50
2022/05/21 02:21:29;;;;;;;2.20;0.70;;;;;;;16.30;100.00;98919.63;1709154;83;21034;-51
2022/05/21 02:23:56;;;;;;;2.25;0.68;;;;;;;16.29;100.00;98919.25;1684270;83;20934;-50
2022/05/21 02:26:22;;;;;;;3.83;0.85;;;;;;;16.27;100.00;98918.52;1684409;83;21282;-51
2022/05/21 02:28:49;;;;;;;1.22;0.60;;;;;;;16.25;100.00;98909.63;1692816;82;21025;-52
2022/05/21 02:31:15;;;;;;;5.75;0.60;;;;;;;16.24;100.00;98907.93;1695022;82;21046;-51
2022/05/21 02:33:43;;;;;;;1.57;0.80;;;;;;;16.23;100.00;98909.78;1692530;82;21149;-52
2022/05/21 02:36:10;;;;;;;2.85;0.78;;;;;;;16.23;100.00;98912.99;1693049;82;21129;-51
2022/05/21 02:41:22;;;;;;;;;;;;;;;16.22;100.00;98916.70;1698416;82;20891;-51
2022/05/21 02:43:48;;;;;;;2.35;0.70;;;;;;;16.21;100.00;98920.40;1692090;82;20249;-52
2022/05/21 02:46:16;;;;;;;2.22;0.75;;;;;;;16.19;100.00;98925.95;1689831;83;21078;-51
2022/05/21 02:48:45;;;;;;;4.67;0.60;;;;;;;16.19;100.00;98915.58;1693146;82;21097;-51
2022/05/21 02:51:12;;;;;;;2.12;1.00;;;;;;;16.20;100.00;98914.59;1694256;82;21213;-51
2022/05/21 02:53:39;;;;;;;3.17;0.80;;;;;;;16.21;100.00;98911.76;1690986;82;22123;-51
2022/05/21 02:56:08;;;;;;;1.70;0.60;;;;;;;16.22;100.00;98902.63;1680074;83;21144;-51
2022/05/21 02:58:35;;;;;;;2.85;0.70;;;;;;;16.24;100.00;98901.14;1672400;85;21057;-50
2022/05/21 03:01:01;;;;;;;1.07;0.60;;;;;;;16.23;100.00;98905.71;1697875;82;21061;-52
2022/05/21 03:03:28;;;;;;;3.92;0.78;;;;;;;16.25;100.00;98906.91;1697686;82;22562;-51
2022/05/21 03:05:54;;;;;;;1.77;0.60;;;;;;;16.25;100.00;98902.84;1669091;83;21065;-51
2022/05/21 03:11:07;;;;;;;2.22;0.62;;;;;;;16.27;100.00;98896.79;1706629;82;21431;-50
2022/05/21 03:13:34;;;;;;;4.30;0.70;;;;;;;16.28;100.00;98891.73;1703394;82;21073;-50
2022/05/21 03:16:01;;;;;;;4.05;1.22;;;;;;;16.31;100.00;98890.61;1709237;82;21331;-51
2022/05/21 03:18:27;;;;;;;1.60;0.72;;;;;;;16.32;100.00;98879.63;1711904;82;21588;-50
2022/05/21 03:20:55;;;;;;;1.55;0.70;;;;;;;16.36;100.00;98885.14;1708382;82;21117;-51
2022/05/21 03:23:22;;;;;;;3.95;0.70;;;;;;;16.39;100.00;98882.17;1710407;82;21097;-52
2022/05/21 03:25:49;;;;;;;4.40;0.68;;;;;;;16.42;100.00;98881.03;1707293;82;21571;-53
2022/05/21 03:28:17;;;;;;;6.22;0.65;;;;;;;16.43;100.00;98875.97;1705570;82;21117;-51
2022/05/21 03:30:45;;;;;;;1.30;0.60;;;;;;;16.45;100.00;98876.20;1709553;82;21065;-50
2022/05/21 03:33:12;;;;;;;2.40;0.70;;;;;;;16.48;100.00;98875.09;1705808;82;21069;-51
2022/05/21 03:35:41;;;;;;;1.72;0.70;;;;;;;16.51;100.00;98876.16;1707006;82;21053;-50
2022/05/21 03:38:09;;;;;;;1.85;0.72;;;;;;;16.53;100.00;98870.11;1706594;82;21156;-50
2022/05/21 03:40:35;;;;;;;3.08;0.60;;;;;;;16.57;100.00;98877.88;1714734;82;21870;-50
2022/05/21 03:43:04;;;;;;;2.55;0.70;;;;;;;16.61;100.00;98875.77;1706926;82;21059;-50
2022/05/21 03:45:30;;;;;;;1.70;0.70;;;;;;;16.67;100.00;98864.89;1710234;82;21624;-50
2022/05/21 03:47:57;;;;;;;6.15;0.70;;;;;;;16.75;100.00;98873.23;1707760;82;21068;-50
2022/05/21 03:50:27;;;;;;;5.87;1.10;;;;;;;16.80;100.00;98868.25;1706813;82;21045;-52
2022/05/21 03:52:53;;;;;;;2.35;0.75;;;;;;;16.87;100.00;98855.34;1705655;82;21108;-50
2022/05/21 03:55:19;;;;;;;5.35;0.80;;;;;;;16.93;100.00;98858.00;1707202;82;21053;-50
2022/05/21 03:57:46;;;;;;;2.55;0.62;;;;;;;16.98;100.00;98847.10;1707360;82;21095;-50
2022/05/21 04:00:14;;;;;;;3.33;0.78;;;;;;;17.03;100.00;98837.16;1705041;82;21101;-51
2022/05/21 04:02:40;;;;;;;6.92;0.88;;;;;;;17.08;100.00;98837.64;1706308;82;23231;-51
2022/05/21 04:05:08;;;;;;;1.65;0.78;;;;;;;17.13;100.00;98829.05;1717110;81;21682;-51
2022/05/21 04:07:34;;;;;;;1.27;0.70;;;;;;;17.18;100.00;98832.23;1709441;81;21363;-50
2022/05/21 04:10:01;;;;;;;1.72;0.60;;;;;;;17.20;100.00;98840.59;1707519;83;20903;-50
2022/05/21 04:12:28;;;;;;;1.30;0.70;;;;;;;17.23;100.00;98840.33;1687375;83;21050;-51
2022/05/21 04:14:54;;;;;;;5.17;0.98;;;;;;;17.24;100.00;98835.76;1679151;83;20919;-49
2022/05/21 04:17:21;;;;;;;2.10;0.80;;;;;;;17.26;100.00;98845.52;1704295;82;21246;-49
2022/05/21 04:19:47;;;;;;;0.80;0.60;;;;;;;17.26;100.00;98834.63;1680149;83;21433;-50
2022/05/21 04:22:14;;;;;;;2.52;0.70;;;;;;;17.27;100.00;98834.97;1680682;83;21584;-51
2022/05/21 04:24:40;;;;;;;4.70;0.78;;;;;;;17.30;100.00;98842.00;1704906;82;21089;-51
2022/05/21 04:27:11;;;;;;;2.27;0.68;;;;;;;17.31;100.00;98839.14;1706341;81;21096;-51
2022/05/21 04:29:36;;;;;;;3.12;0.90;;;;;;;17.34;100.00;98833.44;1708619;81;21832;-52
2022/05/21 04:32:03;;;;;;;1.45;0.70;;;;;;;17.38;100.00;98836.22;1704794;83;22804;-51
2022/05/21 04:34:29;;;;;;;2.67;0.70;;;;;;;17.45;100.00;98838.38;1680266;83;21252;-51
2022/05/21 04:36:56;;;;;;;1.52;0.70;;;;;;;17.52;100.00;98842.29;1712709;81;20998;-51
2022/05/21 04:39:22;;;;;;;2.40;0.80;;;;;;;17.60;100.00;98835.65;1707252;83;20923;-52
2022/05/21 04:41:49;;;;;;;3.35;0.80;;;;;;;17.67;100.00;98837.70;1686012;83;21108;-52
2022/05/21 04:46:43;;;;;;;9.40;1.10;;;;;;;17.85;100.00;98828.34;1863117;75;28512;-52
2022/05/21 04:49:09;;;;;;;3.98;0.70;;;;;;;17.90;100.00;98820.59;1798822;78;21220;-53
2022/05/21 04:51:37;;;;;;;2.70;0.90;;;;;;;17.97;100.00;98813.56;1807607;78;21145;-52
2022/05/21 04:54:04;;;;;;;2.72;0.80;;;;;;;18.07;100.00;98811.71;1771955;80;20915;-54
2022/05/21 04:56:31;;;;;;;1.40;0.75;;;;;;;18.17;100.00;98803.54;1771457;79;21350;-53
2022/05/21 04:58:59;;;;;;;1.67;0.70;;;;;;;18.25;100.00;98798.22;1791179;78;20904;-53
2022/05/21 05:01:25;;;;;;;4.15;0.90;;;;;;;18.35;100.00;98790.91;1783866;78;20879;-52
2022/05/21 05:03:52;;;;;;;4.80;0.82;;;;;;;18.46;100.00;98793.94;1790813;79;21399;-53
2022/05/21 05:06:18;;;;;;;2.45;0.80;;;;;;;18.56;100.00;98789.34;1793863;78;21467;-52
2022/05/21 05:08:45;;;;;;;2.27;0.80;;;;;;;18.66;100.00;98787.48;1787954;79;21482;-53
2022/05/21 05:11:13;;;;;;;3.87;0.90;;;;;;;18.75;100.00;98776.19;1783973;79;21040;-53
2022/05/21 05:13:39;;;;;;;1.73;0.87;;;;;;;18.81;100.00;98787.34;1787187;79;21052;-53
2022/05/21 05:16:06;;;;;;;1.87;0.65;;;;;;;18.86;100.00;98786.41;1783566;79;21130;-53
2022/05/21 05:18:32;;;;;;;2.85;0.80;;;;;;;18.90;100.00;98785.59;1784926;79;21362;-52
2022/05/21 05:21:01;;;;;;;1.87;0.80;;;;;;;18.94;100.00;98778.84;1808879;78;21447;-52
2022/05/21 05:23:28;;;;;;;2.17;0.80;;;;;;;18.99;100.00;98775.16;1785860;78;21056;-52
2022/05/21 05:25:54;;;;;;;5.62;1.12;;;;;;;19.05;100.00;98772.34;1805317;78;21061;-52
2022/05/21 05:28:23;;;;;;;8.98;2.30;;;;;;;19.10;100.00;98779.56;1803450;77;21240;-51
2022/05/21 05:30:50;;;;;;;7.33;1.47;;;;;;;19.15;100.00;98773.13;1805253;77;21582;-52
2022/05/21 05:33:18;;;;;;;1.87;0.90;;;;;;;19.20;100.00;98781.23;1779238;78;21523;-53
2022/05/21 05:35:54;;;;;;;5.53;0.80;;;;;;;19.23;100.00;98775.45;1806262;78;21523;-50
2022/05/21 05:38:21;;;;;;;6.55;0.80;;;;;;;19.28;100.00;98780.47;1777330;79;22405;-51
2022/05/21 05:40:50;;;;;;;3.15;0.80;;;;;;;19.32;100.00;98784.59;1780149;78;21461;-51
2022/05/21 05:43:18;;;;;;;1.42;0.80;;;;;;;19.34;100.00;98774.39;1782841;78;21057;-51
2022/05/21 05:45:44;;;;;;;2.58;0.90;;;;;;;19.38;100.00;98771.73;1773382;79;20978;-51
2022/05/21 05:48:12;;;;;;;3.05;0.85;;;;;;;19.41;100.00;98776.86;1808191;77;20946;-51
2022/05/21 05:50:38;;;;;;;5.65;0.80;;;;;;;19.44;100.00;98768.38;1803660;78;21061;-51
2022/05/21 05:53:06;;;;;;;3.25;0.80;;;;;;;19.46;100.00;98767.73;1804374;78;21818;-52
2022/05/21 05:55:33;;;;;;;2.27;0.82;;;;;;;19.50;100.00;98769.66;1780301;78;22562;-51
2022/05/21 05:58:00;;;;;;;1.55;0.75;;;;;;;19.53;100.00;98760.66;1808998;78;21057;-51
2022/05/21 06:00:26;;;;;;;2.35;0.85;;;;;;;19.59;100.00;98755.08;1807060;77;21065;-52
2022/05/21 06:02:58;;;;;;;5.15;1.00;;;;;;;19.64;100.00;98751.41;1804420;77;22541;-52
2022/05/21 06:05:28;;;;;;;0.98;0.70;;;;;;;19.68;100.00;98754.66;1805900;78;22283;-51
2022/05/21 06:08:02;;;;;;;1.10;1.00;;;;;;;19.72;100.00;98749.26;1812540;77;21697;-51
2022/05/21 06:10:38;;;;;;;3.83;0.70;;;;;;;19.74;100.00;98741.74;1813481;78;20866;-53
2022/05/21 06:13:07;;;;;;;2.92;0.70;;;;;;;19.77;100.00;98747.77;1802794;78;21033;-51
2022/05/21 06:15:34;;;;;;;3.00;0.80;;;;;;;19.79;100.00;98748.98;1778689;78;21041;-50
2022/05/21 06:18:08;;;;;;;2.47;0.70;;;;;;;19.82;100.00;98743.22;1784752;78;21323;-53
2022/05/21 06:20:37;;;;;;;1.75;0.80;;;;;;;19.85;100.00;98747.84;1777972;79;21598;-52
2022/05/21 06:23:04;;;;;;;4.28;0.98;;;;;;;19.88;100.00;98741.22;1774013;79;21109;-51
2022/05/21 06:25:33;;;;;;;7.25;1.45;;;;;;;19.93;100.00;98732.03;1776309;79;21053;-52
2022/05/21 06:27:59;;;;;;;3.02;0.80;;;;;;;19.98;100.00;98736.53;1780002;78;20954;-53
2022/05/21 06:30:26;;;;;;;3.60;1.00;;;;;;;20.03;100.00;98737.76;1804673;78;21082;-51
2022/05/21 06:32:54;;;;;;;1.75;1.07;;;;;;;20.08;100.00;98729.08;1803399;78;21144;-53
2022/05/21 06:35:21;;;;;;;2.67;0.80;;;;;;;20.13;100.00;98734.08;1807628;77;21017;-52
2022/05/21 06:37:47;;;;;;;5.20;1.02;;;;;;;20.15;100.00;98734.28;1806179;77;21074;-52
2022/05/21 06:40:14;;;;;;;3.08;0.80;;;;;;;20.20;100.00;98737.89;1805733;77;21089;-52
2022/05/21 06:42:41;;;;;;;1.47;0.80;;;;;;;20.22;100.00;98729.03;1778417;78;22512;-54
2022/05/21 06:45:08;;;;;;;2.12;0.78;;;;;;;20.26;100.00;98731.27;1800238;78;21033;-52
2022/05/21 06:47:36;;;;;;;1.42;0.80;;;;;;;20.30;100.00;98728.58;1781213;78;21139;-52
2022/05/21 06:50:04;;;;;;;1.65;0.75;;;;;;;20.35;100.00;98720.78;1779681;78;21192;-52
2022/05/21 06:52:31;;;;;;;1.52;0.80;;;;;;;20.42;100.00;98723.72;1783654;78;20902;-53
2022/05/21 06:54:57;;;;;;;0.82;0.75;;;;;;;20.46;100.00;98717.44;1780728;78;21088;-52
2022/05/21 06:57:28;;;;;;;0.90;0.80;;;;;;;20.51;100.00;98714.55;1749196;80;21603;-52
2022/05/21 06:59:52;;;;;;;4.55;1.02;;;;;;;20.58;100.00;98714.78;1779721;78;21060;-52
2022/05/21 07:02:19;;;;;;;4.08;0.88;;;;;;;20.64;100.00;98719.59;1776616;78;21053;-52
2022/05/21 07:07:34;;;;;;;1.37;1.17;;;;;;;20.71;100.00;98713.31;1778434;79;22367;-52
2022/05/21 07:10:13;;;;;;;2.85;1.10;;;;;;;20.77;100.00;98704.45;1778189;78;20972;-52
2022/05/21 07:12:39;;;;;;;4.62;0.80;;;;;;;20.82;100.00;98699.87;1783743;78;20910;-52
2022/05/21 07:15:07;;;;;;;5.30;0.90;;;;;;;20.90;100.00;98695.80;1782507;78;21054;-52
2022/05/21 07:17:34;;;;;;;1.57;0.75;;;;;;;20.98;100.00;98694.46;1784920;78;20908;-52
2022/05/21 07:20:06;;;;;;;4.00;0.80;;;;;;;21.06;100.00;98701.84;1784797;78;21114;-55
2022/05/21 07:22:33;;;;;;;2.60;0.70;;;;;;;21.12;100.00;98689.72;1784284;78;20906;-53
2022/05/21 07:25:03;;;;;;;2.83;0.80;;;;;;;21.19;100.00;98689.08;1783871;78;21356;-52
2022/05/21 07:27:30;;;;;;;2.55;0.70;;;;;;;21.25;100.00;98687.06;1782661;78;20957;-52
2022/05/21 07:29:57;;;;;;;1.17;0.70;;;;;;;21.30;100.00;98680.05;1783313;79;20905;-53
2022/05/21 07:32:24;;;;;;;1.50;1.35;;;;;;;21.37;100.00;98672.02;1784679;79;21158;-53
2022/05/21 07:35:00;;;;;;;2.98;0.80;;;;;;;21.45;100.00;98674.77;1784404;79;20943;-52
2022/05/21 07:37:26;;;;;;;1.10;0.60;;;;;;;21.52;100.00;98673.09;1788413;78;20938;-53
2022/05/21 07:39:54;;;;;;;2.45;0.75;;;;;;;21.58;100.00;98661.45;1786253;79;21356;-52
2022/05/21 07:42:20;;;;;;;3.52;0.68;;;;;;;21.65;100.00;98663.84;1786251;79;20956;-54
2022/05/21 07:44:47;;;;;;;7.37;1.10;;;;;;;21.70;100.00;98660.58;1786021;79;21030;-53
2022/05/21 07:47:13;;;;;;;3.25;0.70;;;;;;;21.75;100.00;98645.88;1793597;78;20985;-53
2022/05/21 07:49:40;;;;;;;2.33;0.80;;;;;;;21.81;100.00;98642.45;1769501;79;22153;-53
2022/05/21 07:52:07;;;;;;;4.75;0.80;;;;;;;21.90;100.00;98637.31;1775200;79;21037;-52
2022/05/21 07:54:33;;;;;;;2.85;0.70;;;;;;;22.01;100.00;98627.92;1774826;79;21827;-53
2022/05/21 07:57:01;;;;;;;3.47;0.70;;;;;;;22.10;100.00;98626.88;1778782;79;21153;-52
2022/05/21 07:59:29;;;;;;;3.25;0.60;;;;;;;22.20;100.00;98627.55;1777406;79;21063;-52
2022/05/21 08:01:55;;;;;;;3.52;0.72;;;;;;;22.29;100.00;98620.99;1784605;79;21897;-51
2022/05/21 08:04:21;;;;;;;0.98;0.70;;;;;;;22.37;100.00;98626.45;1784063;78;20978;-53
2022/05/21 08:06:48;;;;;;;0.90;0.65;;;;;;;22.43;100.00;98621.66;1800460;77;20915;-53
2022/05/21 08:09:15;;;;;;;3.08;0.70;;;;;;;22.49;100.00;98622.83;1770103;79;21824;-52
2022/05/21 08:11:42;;;;;;;3.12;0.70;;;;;;;22.55;100.00;98624.34;1758928;79;21039;-53
2022/05/21 08:14:09;;;;;;;3.02;0.82;;;;;;;22.63;100.00;98622.94;1765004;79;21066;-53
2022/05/21 08:16:38;;;;;;;1.00;0.90;;;;;;;22.71;100.00;98621.22;1762476;79;21128;-53
2022/05/21 08:19:04;;;;;;;4.03;0.75;;;;;;;22.76;100.00;98615.55;1778149;79;21047;-53
2022/05/21 08:21:31;;;;;;;3.10;0.70;;;;;;;22.78;100.00;98618.12;1760620;79;22249;-52
2022/05/21 08:26:56;;;;;;;2.02;0.60;;;;;;;22.85;100.00;98620.48;1804286;78;20930;-53
2022/05/21 08:29:30;;;;;;;2.58;0.70;;;;;;;22.88;100.00;98614.66;1785846;78;22482;-54
2022/05/21 08:31:57;;;;;;;2.17;0.80;;;;;;;22.93;100.00;98611.70;1778235;78;21119;-53
2022/05/21 08:34:24;;;;;;;2.22;0.70;;;;;;;22.98;100.00;98602.91;1800293;77;23045;-55
2022/05/21 08:36:50;;;;;;;2.35;0.62;;;;;;;23.04;100.00;98602.21;1764980;79;21031;-53
2022/05/21 08:39:17;;;;;;;2.02;0.60;;;;;;;23.10;100.00;98595.13;1796726;78;20981;-52
2022/05/21 08:41:56;;;;;;;4.03;0.68;;;;;;;23.15;100.00;98595.43;1758980;79;21006;-51
2022/05/21 08:44:37;;;;;;;0.85;0.62;;;;;;;23.18;100.00;98597.31;1783920;78;21077;-52
2022/05/21 08:47:27;;;;;;;3.27;0.60;;;;;;;23.20;100.00;98599.36;1772581;78;21091;-52
2022/05/21 08:50:04;;;;;;;2.30;0.62;;;;;;;23.22;100.00;98595.89;1808601;78;21152;-54
2022/05/21 08:53:09;;;;;;;6.92;0.60;;;;;;;23.24;100.00;98586.96;1808467;78;21480;-53
2022/05/21 08:55:46;;;;;;;3.40;0.70;;;;;;;23.30;100.00;98578.02;1776323;78;21626;-53
2022/05/21 08:58:40;;;;;;;4.22;0.70;;;;;;;23.36;100.00;98578.66;1804634;78;21502;-54
2022/05/21 09:01:09;;;;;;;1.12;0.60;;;;;;;23.42;100.00;98574.30;1807200;78;22762;-53
2022/05/21 09:03:36;;;;;;;2.90;0.70;;;;;;;23.46;100.00;98575.66;1810119;78;20958;-53
2022/05/21 09:06:23;;;;;;;1.20;0.60;;;;;;;23.47;100.00;98572.40;1811303;77;21523;-54
2022/05/21 09:09:05;;;;;;;2.98;0.78;;;;;;;23.47;100.00;98570.51;1807308;77;21430;-51
2022/05/21 09:11:56;;;;;;;0.70;0.50;;;;;;;23.47;100.00;98572.40;1779839;78;21001;-53
2022/05/21 09:14:36;;;;;;;2.70;0.60;;;;;;;23.46;100.00;98580.30;1814571;77;21245;-52
2022/05/21 09:17:07;;;;;;;0.80;0.70;;;;;;;23.43;100.00;98582.87;1812451;77;21005;-51
2022/05/21 09:19:49;;;;;;;5.53;0.78;;;;;;;23.38;100.00;98581.22;1775509;79;21030;-53
2022/05/21 09:22:18;;;;;;;2.55;0.50;;;;;;;23.33;100.00;98579.52;1777702;79;21045;-53
2022/05/21 09:24:59;;;;;;;4.47;0.72;;;;;;;23.26;100.00;98595.02;1807688;78;21101;-55
2022/05/21 09:27:38;;;;;;;3.52;0.70;;;;;;;23.18;100.00;98627.50;1810153;77;21653;-51
2022/05/21 09:30:33;;;;;;;1.57;0.65;;;;;;;23.07;100.00;98669.59;1774789;79;21491;-53
2022/05/21 09:33:03;;;;;;;1.25;0.90;;;;;;;22.76;100.00;98674.53;1781913;78;20894;-50
2022/05/21 09:35:32;;;;;;;4.15;0.75;;;;;;;22.39;100.00;98682.48;1793266;78;20946;-52
2022/05/21 09:38:15;;;;;;;1.20;0.80;;;;;;;22.02;100.00;98683.06;1813712;78;20918;-49
2022/05/21 09:40:41;;;;;;;1.15;1.00;;;;;;;21.68;100.00;98677.21;1785282;79;21130;-50
2022/05/21 09:46:28;;;;;;;4.87;1.20;;;;;;;21.09;100.00;98670.05;1788811;79;22462;-51
2022/05/21 09:49:14;;;;;;;2.87;1.10;;;;;;;20.89;100.00;98660.40;1783233;79;21140;-51
2022/05/21 09:51:40;;;;;;;3.20;0.90;;;;;;;20.70;100.00;98669.20;1790352;79;22439;-53
2022/05/21 09:54:20;;;;;;;4.20;1.20;;;;;;;20.57;100.00;98666.59;1786323;79;21154;-54
2022/05/21 09:56:49;;;;;;;3.92;1.37;;;;;;;20.46;100.00;98655.94;1769041;79;21029;-50
2022/05/21 09:59:20;;;;;;;2.75;0.98;;;;;;;20.36;100.00;98654.68;1805734;78;20993;-53
2022/05/21 10:01:53;;;;;;;2.17;1.00;;;;;;;20.28;100.00;98651.87;1779092;79;20906;-54
2022/05/21 10:04:41;;;;;;;3.05;0.88;;;;;;;20.20;100.00;98639.52;1753082;79;20917;-54
2022/05/21 10:13:15;;;;;;;1.77;0.90;;;;;;;19.99;100.00;98633.92;1787638;79;21080;-53
2022/05/21 10:15:46;;;;;;;6.87;0.98;;;;;;;19.94;100.00;98639.02;1787550;79;20997;-53
2022/05/21 10:18:24;;;;;;;2.47;1.00;;;;;;;19.91;100.00;98624.81;1786008;79;21107;-52
2022/05/21 10:20:52;;;;;;;5.42;1.10;;;;;;;19.87;100.00;98591.52;1799988;78;22644;-52
2022/05/21 10:23:48;;;;;;;1.90;1.10;;;;;;;19.80;100.00;98576.80;1808582;78;20994;-50
2022/05/21 10:26:41;;;;;;;1.82;0.85;;;;;;;19.73;100.00;98570.78;1785329;78;20955;-49
2022/05/21 10:29:20;;;;;;;1.10;1.00;;;;;;;19.67;100.00;98574.99;1815810;78;20898;-50
2022/05/21 10:32:28;;;;;;;3.90;0.90;;;;;;;19.63;100.00;98573.11;1775388;80;20954;-50
2022/05/21 10:35:33;;;;;;;4.65;1.17;;;;;;;19.61;100.00;98575.13;1728819;79;21091;-51
2022/05/21 10:38:14;;;;;;;1.98;1.10;;;;;;;19.61;100.00;98553.30;1783757;78;20985;-53
2022/05/21 10:40:54;;;;;;;2.77;1.10;;;;;;;19.61;100.00;98545.11;1777598;78;21001;-53
2022/05/21 10:43:29;;;;;;;2.00;1.00;;;;;;;19.61;100.00;98556.53;1770972;79;20919;-56
2022/05/21 10:46:13;;;;;;;2.00;1.45;;;;;;;19.60;100.00;98561.13;1808525;78;20886;-50
2022/05/21 10:49:03;;;;;;;3.33;1.10;;;;;;;19.58;100.00;98565.88;1789182;78;22148;-52
2022/05/21 10:51:36;;;;;;;2.37;1.00;;;;;;;19.56;100.00;98557.53;1779222;78;21531;-51
2022/05/21 10:54:32;;;;;;;3.47;1.40;;;;;;;19.53;100.00;98545.05;1797750;79;20934;-54
2022/05/21 10:57:38;;;;;;;1.85;1.20;;;;;;;19.52;100.00;98533.78;1813599;77;20967;-50
2022/05/21 11:00:31;;;;;;;3.27;1.20;;;;;;;19.51;100.00;98521.66;1771306;79;20913;-51
2022/05/21 11:03:34;;;;;;;2.90;1.03;;;;;;;19.53;100.00;98501.38;1786897;78;21909;-54
2022/05/21 11:06:12;;;;;;;3.50;1.12;;;;;;;19.59;100.00;98502.09;1777522;78;21478;-51
2022/05/21 11:09:11;;;;;;;2.52;1.40;;;;;;;19.71;100.00;98511.38;1741451;79;21530;-52
2022/05/21 11:11:59;;;;;;;1.32;1.00;;;;;;;19.80;100.00;98504.45;1787871;79;21931;-50
2022/05/21 11:14:38;;;;;;;1.47;0.90;;;;;;;19.90;100.00;98497.51;1786869;78;21127;-50
2022/05/21 11:17:46;;;;;;;1.98;1.00;;;;;;;19.99;100.00;98501.45;1786572;78;22496;-48
2022/05/21 11:20:21;;;;;;;3.17;1.10;;;;;;;20.11;100.00;98495.70;1786623;78;21087;-51
2022/05/21 11:23:23;;;;;;;3.72;1.07;;;;;;;20.25;100.00;98500.03;1774942;80;21144;-49
2022/05/21 11:25:58;;;;;;;2.80;1.10;;;;;;;20.33;100.00;98497.32;1786439;77;21051;-51
2022/05/21 11:28:46;;;;;;;1.37;1.00;;;;;;;20.43;100.00;98504.05;1759643;78;21081;-51
2022/05/21 11:37:20;;;;;;;1.17;1.05;;;;;;;20.48;100.00;98494.00;1790529;77;21112;-51
2022/05/21 11:39:25;;;;;;;2.40;1.30;;;;;;;20.56;100.00;98455.23;1807993;77;21411;-49
2022/05/21 11:42:09;;;;;;;2.58;1.05;;;;;;;20.58;100.00;98454.56;1804723;77;21100;-51
2022/05/21 11:45:01;;;;;;;2.08;1.10;;;;;;;20.58;100.00;98463.28;1762371;78;21092;-51
2022/05/21 11:47:49;;;;;;;2.67;1.00;;;;;;;20.56;100.00;98462.58;1807183;78;21061;-49
2022/05/21 11:50:26;;;;;;;1.60;1.02;;;;;;;20.55;100.00;98456.77;1805801;77;21112;-51
2022/05/21 11:53:08;;;;;;;3.75;0.90;;;;;;;20.51;100.00;98448.55;1779642;79;21096;-50
2022/05/21 11:56:03;;;;;;;2.55;0.98;;;;;;;20.48;100.00;98440.20;1806000;77;21132;-51
2022/05/21 11:59:02;;;;;;;1.00;0.90;;;;;;;20.47;100.00;98433.52;1778126;78;21039;-49
2022/05/21 12:01:46;;;;;;;4.25;1.00;;;;;;;20.49;100.00;98431.48;1808524;77;21069;-52
2022/05/21 12:04:40;;;;;;;5.37;1.12;;;;;;;20.53;100.00;98415.92;1776991;78;21060;-50
2022/05/21 12:07:07;;;;;;;3.15;1.02;;;;;;;20.61;100.00;98417.81;1799109;78;21097;-48
2022/05/21 12:09:36;;;;;;;5.97;1.20;;;;;;;20.72;100.00;98406.55;1765686;79;21045;-49
2022/05/21 12:12:21;;;;;;;1.92;0.95;;;;;;;20.85;100.00;98400.55;1746770;79;21961;-50
2022/05/21 12:14:55;;;;;;;2.02;0.90;;;;;;;21.00;100.00;98386.05;1773316;79;21405;-52
2022/05/21 12:17:43;;;;;;;1.00;0.90;;;;;;;21.14;100.00;98378.48;1772538;79;21053;-49